createdAt,value
2019-05-02T00:00:41.224Z,20.62
2019-05-02T00:01:41.245Z,22.14
2019-05-02T00:02:41.212Z,22.90
2019-05-02T00:03:42.894Z,22.24
2019-05-02T00:04:41.209Z,22.14
2019-05-02T00:05:41.206Z,22.05
2019-05-02T00:06:42.921Z,21.09
2019-05-02T00:07:41.204Z,20.34
2019-05-02T00:08:41.197Z,20.81
2019-05-02T00:09:47.768Z,19.20
2019-05-02T00:10:41.189Z,18.24
2019-05-02T00:11:41.221Z,19.57
2019-05-02T00:12:41.190Z,18.62
2019-05-02T00:13:41.182Z,18.43
2019-05-02T00:14:41.186Z,17.20
2019-05-02T00:15:41.178Z,16.82
2019-05-02T00:16:45.174Z,17.01
2019-05-02T00:17:41.207Z,17.39
2019-05-02T00:18:41.179Z,16.35
2019-05-02T00:19:45.140Z,16.06
2019-05-02T00:20:41.166Z,15.20
2019-05-02T00:21:43.127Z,12.07
2019-05-02T00:22:41.187Z,13.11
2019-05-02T00:23:41.159Z,11.88
2019-05-02T00:24:41.183Z,12.16
2019-05-02T00:25:41.159Z,10.74
2019-05-02T00:26:41.154Z,9.31
2019-05-02T00:27:41.175Z,8.07
2019-05-02T00:28:43.002Z,9.41
2019-05-02T00:29:41.135Z,10.17
2019-05-02T00:30:41.141Z,9.69
2019-05-02T00:31:41.952Z,8.07
2019-05-02T00:32:41.165Z,10.17
2019-05-02T00:33:41.133Z,11.97
2019-05-02T00:34:41.128Z,12.82
2019-05-02T00:35:45.905Z,13.21
2019-05-02T00:36:41.124Z,13.49
2019-05-02T00:37:41.156Z,14.35
2019-05-02T00:38:41.112Z,12.07
2019-05-02T00:39:45.121Z,11.88
2019-05-02T00:40:41.109Z,9.78
2019-05-02T00:41:41.106Z,9.50
2019-05-02T00:42:41.133Z,10.45
2019-05-02T00:43:41.097Z,10.26
2019-05-02T00:44:42.018Z,10.45
2019-05-02T00:45:41.097Z,10.06
2019-05-02T00:46:41.091Z,9.97
2019-05-02T00:47:42.339Z,9.03
2019-05-02T00:48:41.090Z,9.02
2019-05-02T00:49:41.086Z,8.64
2019-05-02T00:50:45.400Z,9.31
2019-05-02T00:51:41.078Z,9.40
2019-05-02T00:52:41.102Z,8.17
2019-05-02T00:53:44.406Z,4.94
2019-05-02T00:54:41.066Z,1.61
2019-05-02T00:55:41.068Z,1.52
2019-05-02T00:56:44.212Z,0.00
2019-05-02T00:57:41.059Z,0.00
2019-05-02T00:58:41.090Z,0.00
2019-05-02T00:59:42.448Z,0.00
2019-05-02T01:00:41.046Z,1.80
2019-05-02T01:01:41.051Z,3.52
2019-05-02T01:02:41.817Z,3.99
2019-05-02T01:03:41.071Z,7.22
2019-05-02T01:04:41.041Z,9.78
2019-05-02T01:05:41.036Z,5.98
2019-05-02T01:06:44.753Z,7.98
2019-05-02T01:07:41.038Z,6.37
2019-05-02T01:08:41.062Z,7.31
2019-05-02T01:09:42.098Z,7.22
2019-05-02T01:10:41.030Z,6.37
2019-05-02T01:11:41.019Z,5.32
2019-05-02T01:12:44.399Z,5.70
2019-05-02T01:13:41.039Z,6.46
2019-05-02T01:14:41.013Z,6.93
2019-05-02T01:15:44.219Z,7.31
2019-05-02T01:16:41.004Z,7.03
2019-05-02T01:17:41.006Z,8.55
2019-05-02T01:18:42.450Z,9.03
2019-05-02T01:19:41.136Z,9.12
2019-05-02T01:20:41.000Z,7.03
2019-05-02T01:21:40.995Z,6.74
2019-05-02T01:22:40.990Z,4.27
2019-05-02T01:23:41.019Z,3.89
2019-05-02T01:24:41.650Z,4.65
2019-05-02T01:25:40.983Z,4.56
2019-05-02T01:26:40.976Z,4.85
2019-05-02T01:27:42.456Z,4.66
2019-05-02T01:28:40.999Z,10.55
2019-05-02T01:29:40.970Z,9.88
2019-05-02T01:30:42.369Z,16.91
2019-05-02T01:31:40.962Z,17.86
2019-05-02T01:32:40.957Z,15.58
2019-05-02T01:33:41.664Z,17.29
2019-05-02T01:34:40.982Z,17.68
2019-05-02T01:35:40.950Z,15.96
2019-05-02T01:36:41.225Z,12.35
2019-05-02T01:37:40.947Z,11.50
2019-05-02T01:38:40.945Z,12.16
2019-05-02T01:39:42.705Z,10.93
2019-05-02T01:40:40.938Z,9.78
2019-05-02T01:41:40.935Z,10.45
2019-05-02T01:42:44.528Z,10.06
2019-05-02T01:43:40.928Z,11.30
2019-05-02T01:44:40.958Z,10.44
2019-05-02T01:45:41.878Z,10.44
2019-05-02T01:46:40.924Z,9.40
2019-05-02T01:47:40.922Z,10.54
2019-05-02T01:48:45.808Z,10.83
2019-05-02T01:49:40.940Z,11.49
2019-05-02T01:50:40.909Z,10.83
2019-05-02T01:51:41.925Z,9.40
2019-05-02T01:52:40.996Z,9.97
2019-05-02T01:53:40.900Z,9.02
2019-05-02T01:54:45.567Z,8.54
2019-05-02T01:55:40.894Z,7.31
2019-05-02T01:56:40.888Z,4.56
2019-05-02T01:57:44.693Z,3.99
2019-05-02T01:58:40.884Z,2.94
2019-05-02T01:59:40.910Z,2.94
2019-05-02T02:00:44.697Z,3.23
2019-05-02T02:01:40.877Z,4.36
2019-05-02T02:02:40.875Z,4.27
2019-05-02T02:03:45.757Z,3.61
2019-05-02T02:04:40.897Z,2.66
2019-05-02T02:05:40.861Z,2.09
2019-05-02T02:06:43.365Z,1.61
2019-05-02T02:07:40.858Z,0.47
2019-05-02T02:08:40.853Z,0.00
2019-05-02T02:09:44.072Z,0.00
2019-05-02T02:10:43.726Z,0.00
2019-05-02T02:11:40.849Z,0.00
2019-05-02T02:12:42.979Z,0.00
2019-05-02T02:13:40.834Z,0.00
2019-05-02T02:14:40.866Z,0.00
2019-05-02T02:15:40.830Z,0.00
2019-05-02T02:16:40.827Z,0.00
2019-05-02T02:17:40.822Z,0.00
2019-05-02T02:18:40.822Z,0.00
2019-05-02T02:19:40.847Z,0.00
2019-05-02T02:20:45.215Z,0.00
2019-05-02T02:21:42.865Z,0.00
2019-05-02T02:22:41.099Z,0.00
2019-05-02T02:23:44.888Z,0.00
2019-05-02T02:24:40.827Z,0.00
2019-05-02T02:25:40.798Z,0.00
2019-05-02T02:26:43.666Z,0.00
2019-05-02T02:27:40.812Z,0.00
2019-05-02T02:28:40.819Z,0.00
2019-05-02T02:29:43.965Z,0.00
2019-05-02T02:30:40.784Z,0.00
2019-05-02T02:31:46.540Z,0.00
2019-05-02T02:32:40.778Z,0.00
2019-05-02T02:33:47.499Z,0.00
2019-05-02T02:34:40.806Z,0.00
2019-05-02T02:35:49.707Z,0.00
2019-05-02T02:36:40.767Z,0.00
2019-05-02T02:37:51.959Z,0.00
2019-05-02T02:38:40.756Z,0.00
2019-05-02T02:39:40.781Z,0.00
2019-05-02T02:40:40.753Z,0.00
2019-05-02T02:41:45.301Z,0.00
2019-05-02T02:42:40.743Z,0.00
2019-05-02T02:43:40.741Z,0.00
2019-05-02T02:44:41.966Z,0.00
2019-05-02T02:45:40.734Z,0.00
2019-05-02T02:46:40.730Z,0.00
2019-05-02T02:47:40.730Z,0.00
2019-05-02T02:48:42.703Z,0.00
2019-05-02T02:49:40.747Z,0.00
2019-05-02T02:50:43.136Z,0.00
2019-05-02T02:51:40.721Z,0.00
2019-05-02T02:52:44.600Z,0.00
2019-05-02T02:53:40.954Z,0.00
2019-05-02T02:54:43.215Z,0.00
2019-05-02T02:55:40.698Z,0.00
2019-05-02T02:56:40.961Z,0.00
2019-05-02T02:57:40.695Z,0.00
2019-05-02T02:58:45.691Z,0.00
2019-05-02T02:59:40.716Z,0.00
2019-05-02T03:00:41.454Z,0.00
2019-05-02T03:01:40.682Z,0.00
2019-05-02T03:02:47.770Z,0.00
2019-05-02T03:03:40.675Z,0.00
2019-05-02T03:04:44.218Z,0.00
2019-05-02T03:05:40.668Z,0.00
2019-05-02T03:06:44.807Z,0.00
2019-05-02T03:07:40.659Z,0.00
2019-05-02T03:08:46.110Z,0.00
2019-05-02T03:09:40.800Z,0.00
2019-05-02T03:10:45.114Z,0.00
2019-05-02T03:11:40.648Z,0.00
2019-05-02T03:12:41.598Z,0.00
2019-05-02T03:13:51.250Z,0.00
2019-05-02T03:14:46.626Z,0.00
2019-05-02T03:15:40.635Z,0.00
2019-05-02T03:16:46.909Z,0.00
2019-05-02T03:17:40.628Z,0.00
2019-05-02T03:18:43.346Z,0.00
2019-05-02T03:19:40.878Z,0.00
2019-05-02T03:20:42.040Z,0.00
2019-05-02T03:21:40.619Z,0.00
2019-05-02T03:22:41.783Z,0.00
2019-05-02T03:23:40.607Z,0.00
2019-05-02T03:24:44.149Z,0.00
2019-05-02T03:25:50.286Z,0.00
2019-05-02T03:26:40.594Z,0.00
2019-05-02T03:27:40.603Z,0.00
2019-05-02T03:28:40.642Z,0.00
2019-05-02T03:29:44.353Z,0.00
2019-05-02T03:30:40.607Z,0.00
2019-05-02T03:31:40.578Z,0.00
2019-05-02T03:32:40.599Z,0.00
2019-05-02T03:33:53.782Z,0.00
2019-05-02T03:34:52.995Z,0.00
2019-05-02T03:35:44.648Z,0.00
2019-05-02T03:36:40.595Z,0.00
2019-05-02T03:37:44.674Z,0.00
2019-05-02T03:38:41.339Z,0.00
2019-05-02T03:39:40.655Z,0.00
2019-05-02T03:40:41.374Z,0.00
2019-05-02T03:41:40.540Z,0.00
2019-05-02T03:42:44.747Z,0.00
2019-05-02T03:43:40.544Z,0.00
2019-05-02T03:44:40.564Z,0.00
2019-05-02T03:45:43.016Z,0.00
2019-05-02T03:46:40.523Z,0.00
2019-05-02T03:47:43.856Z,0.00
2019-05-02T03:48:41.345Z,0.00
2019-05-02T03:49:47.889Z,0.00
2019-05-02T03:50:40.516Z,0.00
2019-05-02T03:51:40.511Z,0.00
2019-05-02T03:52:43.552Z,0.00
2019-05-02T03:53:40.500Z,0.00
2019-05-02T03:54:48.922Z,0.00
2019-05-02T03:55:40.497Z,0.00
2019-05-02T03:56:44.608Z,0.00
2019-05-02T03:57:42.060Z,0.00
2019-05-02T03:58:40.484Z,0.00
2019-05-02T03:59:41.872Z,0.00
2019-05-02T04:00:40.481Z,0.00
2019-05-02T04:01:41.423Z,0.00
2019-05-02T04:02:40.464Z,0.00
2019-05-02T04:03:43.419Z,0.00
2019-05-02T04:04:40.495Z,0.00
2019-05-02T04:05:42.235Z,0.00
2019-05-02T04:06:40.456Z,0.00
2019-05-02T04:07:42.194Z,0.00
2019-05-02T04:08:40.453Z,0.00
2019-05-02T04:09:42.563Z,0.00
2019-05-02T04:10:40.444Z,0.00
2019-05-02T04:11:40.993Z,0.00
2019-05-02T04:12:40.442Z,0.00
2019-05-02T04:13:40.432Z,0.00
2019-05-02T04:14:40.473Z,0.00
2019-05-02T04:15:40.422Z,0.00
2019-05-02T04:16:40.418Z,0.00
2019-05-02T04:17:40.417Z,0.00
2019-05-02T04:18:40.424Z,0.00
2019-05-02T04:19:40.452Z,0.00
2019-05-02T04:20:43.626Z,0.00
2019-05-02T04:21:40.409Z,0.00
2019-05-02T04:22:42.935Z,0.00
2019-05-02T04:23:40.398Z,0.00
2019-05-02T04:24:40.428Z,0.00
2019-05-02T04:25:40.394Z,0.00
2019-05-02T04:26:52.805Z,0.00
2019-05-02T04:27:40.390Z,0.00
2019-05-02T04:28:45.665Z,0.00
2019-05-02T04:29:40.410Z,0.00
2019-05-02T04:30:45.265Z,0.00
2019-05-02T04:31:40.379Z,0.00
2019-05-02T04:32:42.939Z,0.00
2019-05-02T04:33:40.373Z,0.00
2019-05-02T04:34:40.402Z,6.18
2019-05-02T04:35:40.367Z,15.02
2019-05-02T04:36:40.362Z,13.12
2019-05-02T04:37:41.346Z,18.06
2019-05-02T04:38:46.888Z,7.89
2019-05-02T04:39:40.388Z,13.12
2019-05-02T04:40:41.785Z,20.45
2019-05-02T04:41:42.340Z,21.97
2019-05-02T04:42:40.351Z,26.06
2019-05-02T04:43:50.356Z,27.49
2019-05-02T04:44:52.978Z,22.74
2019-05-02T04:45:53.136Z,29.58
2019-05-02T04:46:40.341Z,30.17
2019-05-02T04:47:42.589Z,34.36
2019-05-02T04:48:48.138Z,35.40
2019-05-02T04:49:40.337Z,36.64
2019-05-02T04:50:40.339Z,25.98
2019-05-02T04:51:40.326Z,23.22
2019-05-02T04:52:51.219Z,22.85
2019-05-02T04:53:45.055Z,41.33
2019-05-02T04:54:40.316Z,28.28
2019-05-02T04:55:40.326Z,29.99
2019-05-02T04:56:49.643Z,42.47
2019-05-02T04:57:47.284Z,44.78
2019-05-02T04:58:40.804Z,40.58
2019-05-02T04:59:40.315Z,47.06
2019-05-02T05:00:45.099Z,53.56
2019-05-02T05:01:49.177Z,53.19
2019-05-02T05:02:40.332Z,59.38
2019-05-02T05:03:40.330Z,62.15
2019-05-02T05:04:46.120Z,61.19
2019-05-02T05:05:40.460Z,64.72
2019-05-02T05:06:40.917Z,61.19
2019-05-02T05:07:45.842Z,63.67
2019-05-02T05:08:41.668Z,68.63
2019-05-02T05:09:40.562Z,74.63
2019-05-02T05:10:41.486Z,67.86
2019-05-02T05:11:40.289Z,70.72
2019-05-02T05:12:41.793Z,72.09
2019-05-02T05:13:40.322Z,67.90
2019-05-02T05:14:43.324Z,70.76
2019-05-02T05:15:48.561Z,69.62
2019-05-02T05:16:40.282Z,73.52
2019-05-02T05:17:40.291Z,71.33
2019-05-02T05:18:43.928Z,75.85
2019-05-02T05:19:40.278Z,69.08
2019-05-02T05:20:40.607Z,81.77
2019-05-02T05:21:40.279Z,76.90
2019-05-02T05:22:44.384Z,75.18
2019-05-02T05:23:40.314Z,78.43
2019-05-02T05:24:42.311Z,88.73
2019-05-02T05:25:40.274Z,77.00
2019-05-02T05:26:42.922Z,85.49
2019-05-02T05:27:40.273Z,85.39
2019-05-02T05:28:44.221Z,83.62
2019-05-02T05:29:40.271Z,88.45
2019-05-02T05:30:45.152Z,86.63
2019-05-02T05:31:40.277Z,89.21
2019-05-02T05:32:40.292Z,85.72
2019-05-02T05:33:40.266Z,87.06
2019-05-02T05:34:40.268Z,83.53
2019-05-02T05:35:43.269Z,88.97
2019-05-02T05:36:40.267Z,86.35
2019-05-02T05:37:43.316Z,84.10
2019-05-02T05:38:40.706Z,87.02
2019-05-02T05:39:43.151Z,89.78
2019-05-02T05:40:40.260Z,88.11
2019-05-02T05:41:42.580Z,92.97
2019-05-02T05:42:40.285Z,87.06
2019-05-02T05:43:40.261Z,88.20
2019-05-02T05:44:40.268Z,87.15
2019-05-02T05:45:50.831Z,95.46
2019-05-02T05:46:42.499Z,88.30
2019-05-02T05:47:40.295Z,87.39
2019-05-02T05:48:40.842Z,89.49
2019-05-02T05:49:40.257Z,88.73
2019-05-02T05:50:41.516Z,87.24
2019-05-02T05:51:40.257Z,89.82
2019-05-02T05:52:42.349Z,88.77
2019-05-02T05:53:40.258Z,91.64
2019-05-02T05:54:42.034Z,93.93
2019-05-02T05:55:40.259Z,89.34
2019-05-02T05:56:43.230Z,91.35
2019-05-02T05:57:40.289Z,90.97
2019-05-02T05:58:50.426Z,95.94
2019-05-02T05:59:40.261Z,94.55
2019-05-02T06:00:40.257Z,90.44
2019-05-02T06:01:40.253Z,97.71
2019-05-02T06:02:52.695Z,95.51
2019-05-02T06:03:44.597Z,92.11
2019-05-02T06:04:40.258Z,93.35
2019-05-02T06:05:41.193Z,99.00
2019-05-02T06:06:40.258Z,95.17
2019-05-02T06:07:44.003Z,97.18
2019-05-02T06:08:40.288Z,95.46
2019-05-02T06:09:40.255Z,98.71
2019-05-02T06:10:43.909Z,97.95
2019-05-02T06:11:40.253Z,99.99
2019-05-02T06:12:40.264Z,99.99
2019-05-02T06:13:42.986Z,99.57
2019-05-02T06:14:40.259Z,99.99
2019-05-02T06:15:40.479Z,99.99
2019-05-02T06:16:40.262Z,99.99
2019-05-02T06:17:40.258Z,99.00
2019-05-02T06:18:41.869Z,99.99
2019-05-02T06:19:40.283Z,99.62
2019-05-02T06:20:40.264Z,99.99
2019-05-02T06:21:45.238Z,99.99
2019-05-02T06:22:40.254Z,99.99
2019-05-02T06:23:41.567Z,99.99
2019-05-02T06:24:40.434Z,99.99
2019-05-02T06:25:42.528Z,99.99
2019-05-02T06:26:40.263Z,99.99
2019-05-02T06:27:40.279Z,99.99
2019-05-02T06:28:41.526Z,99.99
2019-05-02T06:29:40.313Z,99.99
2019-05-02T06:30:40.267Z,99.99
2019-05-02T06:31:43.172Z,99.99
2019-05-02T06:32:40.271Z,99.99
2019-05-02T06:33:40.275Z,99.99
2019-05-02T06:34:46.589Z,99.99
2019-05-02T06:35:40.272Z,99.99
2019-05-02T06:36:40.273Z,99.99
2019-05-02T06:37:40.766Z,99.99
2019-05-02T06:38:40.276Z,99.99
2019-05-02T06:39:40.307Z,99.99
2019-05-02T06:40:44.722Z,99.99
2019-05-02T06:41:40.273Z,99.99
2019-05-02T06:42:40.279Z,99.99
2019-05-02T06:43:41.073Z,99.99
2019-05-02T06:44:40.309Z,99.99
2019-05-02T06:45:40.280Z,99.99
2019-05-02T06:46:40.264Z,99.99
2019-05-02T06:47:41.646Z,99.99
2019-05-02T06:48:40.853Z,99.99
2019-05-02T06:49:40.315Z,99.99
2019-05-02T06:50:40.590Z,99.99
2019-05-02T06:51:40.289Z,99.99
2019-05-02T06:52:40.289Z,99.99
2019-05-02T06:53:41.429Z,99.99
2019-05-02T06:54:40.324Z,99.99
2019-05-02T06:55:40.295Z,99.99
2019-05-02T06:56:43.007Z,99.99
2019-05-02T06:57:40.292Z,99.99
2019-05-02T06:58:41.934Z,99.99
2019-05-02T06:59:40.320Z,99.99
2019-05-02T07:00:56.518Z,99.99
2019-05-02T07:01:40.302Z,99.99
2019-05-02T07:02:40.302Z,99.99
2019-05-02T07:03:41.299Z,99.99
2019-05-02T07:04:40.338Z,99.99
2019-05-02T07:05:40.306Z,99.99
2019-05-02T07:06:50.092Z,99.99
2019-05-02T07:07:40.312Z,99.99
2019-05-02T07:08:40.396Z,99.99
2019-05-02T07:09:41.591Z,99.99
2019-05-02T07:10:44.965Z,99.99
2019-05-02T07:11:40.974Z,99.99
2019-05-02T07:12:40.322Z,99.99
2019-05-02T07:13:42.124Z,99.99
2019-05-02T07:14:40.362Z,99.99
2019-05-02T07:15:40.535Z,99.99
2019-05-02T07:16:40.331Z,99.99
2019-05-02T07:17:40.337Z,99.99
2019-05-02T07:18:42.131Z,99.99
2019-05-02T07:19:40.335Z,99.99
2019-05-02T07:20:42.349Z,99.99
2019-05-02T07:21:40.346Z,99.99
2019-05-02T07:22:40.821Z,99.99
2019-05-02T07:23:40.349Z,99.99
2019-05-02T07:24:40.353Z,99.99
2019-05-02T07:25:44.013Z,99.99
2019-05-02T07:26:40.356Z,99.99
2019-05-02T07:27:40.359Z,99.99
2019-05-02T07:28:45.473Z,99.99
2019-05-02T07:29:40.364Z,99.99
2019-05-02T07:30:40.399Z,99.99
2019-05-02T07:31:42.944Z,99.99
2019-05-02T07:32:40.376Z,99.99
2019-05-02T07:33:40.378Z,99.99
2019-05-02T07:34:44.291Z,99.99
2019-05-02T07:35:40.385Z,99.99
2019-05-02T07:36:40.392Z,99.99
2019-05-02T07:37:44.054Z,99.99
2019-05-02T07:38:40.395Z,99.99
2019-05-02T07:39:40.974Z,99.99
2019-05-02T07:40:40.432Z,99.99
2019-05-02T07:41:40.409Z,99.99
2019-05-02T07:42:41.822Z,99.99
2019-05-02T07:43:40.416Z,99.99
2019-05-02T07:44:40.423Z,99.99
2019-05-02T07:45:45.198Z,99.99
2019-05-02T07:46:51.224Z,99.99
2019-05-02T07:47:42.380Z,99.99
2019-05-02T07:48:43.414Z,99.99
2019-05-02T07:49:40.438Z,99.99
2019-05-02T07:50:41.144Z,99.99
2019-05-02T07:51:40.442Z,99.99
2019-05-02T07:52:41.208Z,99.99
2019-05-02T07:53:44.454Z,99.99
2019-05-02T07:54:40.460Z,99.99
2019-05-02T07:55:42.384Z,99.99
2019-05-02T07:56:40.463Z,99.99
2019-05-02T07:57:40.467Z,99.35
2019-05-02T07:58:47.027Z,98.48
2019-05-02T07:59:40.478Z,97.96
2019-05-02T08:00:40.507Z,98.05
2019-05-02T08:01:40.483Z,97.52
2019-05-02T08:02:40.494Z,96.85
2019-05-02T08:03:40.499Z,95.21
2019-05-02T08:04:43.586Z,94.25
2019-05-02T08:05:40.539Z,98.44
2019-05-02T08:06:44.664Z,98.82
2019-05-02T08:07:40.528Z,97.67
2019-05-02T08:08:40.524Z,95.50
2019-05-02T08:09:43.995Z,95.02
2019-05-02T08:10:40.563Z,95.89
2019-05-02T08:11:40.541Z,95.79
2019-05-02T08:12:40.553Z,93.82
2019-05-02T08:13:40.556Z,92.85
2019-05-02T08:14:40.561Z,92.57
2019-05-02T08:15:40.597Z,91.94
2019-05-02T08:16:40.579Z,90.50
2019-05-02T08:17:40.585Z,91.46
2019-05-02T08:18:40.585Z,93.00
2019-05-02T08:19:41.695Z,90.98
2019-05-02T08:20:40.628Z,91.04
2019-05-02T08:21:40.606Z,97.09
2019-05-02T08:22:44.029Z,99.99
2019-05-02T08:23:40.623Z,98.91
2019-05-02T08:24:40.628Z,98.00
2019-05-02T08:25:41.509Z,94.83
2019-05-02T08:26:40.640Z,93.82
2019-05-02T08:27:40.655Z,92.76
2019-05-02T08:28:40.657Z,90.97
2019-05-02T08:29:40.661Z,88.77
2019-05-02T08:30:41.871Z,89.35
2019-05-02T08:31:40.681Z,91.60
2019-05-02T08:32:40.685Z,91.51
2019-05-02T08:33:40.693Z,89.10
2019-05-02T08:34:40.704Z,88.57
2019-05-02T08:35:40.739Z,88.38
2019-05-02T08:36:40.717Z,88.33
2019-05-02T08:37:41.464Z,89.63
2019-05-02T08:38:40.737Z,87.99
2019-05-02T08:39:40.745Z,87.07
2019-05-02T08:40:42.412Z,86.11
2019-05-02T08:41:40.757Z,87.36
2019-05-02T08:42:40.767Z,86.93
2019-05-02T08:43:44.896Z,86.78
2019-05-02T08:44:50.706Z,86.88
2019-05-02T08:45:40.823Z,83.55
2019-05-02T08:46:40.798Z,83.74
2019-05-02T08:47:40.806Z,83.41
2019-05-02T08:48:41.849Z,83.52
2019-05-02T08:49:42.515Z,84.97
2019-05-02T08:50:40.866Z,86.89
2019-05-02T08:51:41.592Z,85.00
2019-05-02T08:52:42.202Z,85.34
2019-05-02T08:53:40.865Z,85.53
2019-05-02T08:54:40.878Z,84.70
2019-05-02T08:55:41.287Z,84.52
2019-05-02T08:56:40.921Z,83.36
2019-05-02T08:57:40.901Z,83.64
2019-05-02T08:58:44.879Z,83.40
2019-05-02T08:59:41.014Z,84.07
2019-05-02T09:00:40.955Z,83.01
2019-05-02T09:01:44.770Z,83.53
2019-05-02T09:02:42.017Z,82.28
2019-05-02T09:03:54.721Z,81.32
2019-05-02T09:04:40.977Z,79.74
2019-05-02T09:05:45.561Z,79.79
2019-05-02T09:06:40.988Z,81.43
2019-05-02T09:07:42.946Z,82.10
2019-05-02T09:08:41.008Z,83.25
2019-05-02T09:09:41.033Z,83.44
2019-05-02T09:10:42.214Z,81.02
2019-05-02T09:11:41.506Z,80.06
2019-05-02T09:12:44.311Z,80.64
2019-05-02T09:13:42.210Z,79.87
2019-05-02T09:14:42.606Z,79.35
2019-05-02T09:15:49.766Z,79.02
2019-05-02T09:16:42.745Z,79.89
2019-05-02T09:17:44.637Z,80.71
2019-05-02T09:18:50.098Z,81.83
2019-05-02T09:19:42.934Z,82.50
2019-05-02T09:20:42.340Z,83.12
2019-05-02T09:21:42.917Z,82.93
2019-05-02T09:22:41.864Z,81.77
2019-05-02T09:23:42.090Z,81.72
2019-05-02T09:24:43.068Z,81.12
2019-05-02T09:25:42.968Z,82.08
2019-05-02T09:26:42.577Z,82.75
2019-05-02T09:27:42.054Z,82.50
2019-05-02T09:28:42.271Z,82.50
2019-05-02T09:29:42.474Z,81.91
2019-05-02T09:30:41.951Z,82.92
2019-05-02T09:31:44.354Z,80.16
2019-05-02T09:32:41.882Z,78.23
2019-05-02T09:33:45.259Z,78.33
2019-05-02T09:34:42.357Z,79.39
2019-05-02T09:35:42.152Z,80.78
2019-05-02T09:36:41.825Z,79.58
2019-05-02T09:37:41.859Z,77.11
2019-05-02T09:38:42.497Z,75.67
2019-05-02T09:39:41.603Z,76.40
2019-05-02T09:40:42.623Z,78.85
2019-05-02T09:41:41.927Z,75.85
2019-05-02T09:42:42.955Z,77.69
2019-05-02T09:43:42.615Z,77.59
2019-05-02T09:44:42.588Z,76.63
2019-05-02T09:45:43.824Z,75.37
2019-05-02T09:46:42.828Z,73.15
2019-05-02T09:47:55.449Z,74.99
2019-05-02T09:48:42.642Z,75.14
2019-05-02T09:49:48.924Z,76.92
2019-05-02T09:50:42.199Z,76.78
2019-05-02T09:51:42.044Z,76.43
2019-05-02T09:52:44.187Z,76.05
2019-05-02T09:53:43.198Z,75.72
2019-05-02T09:54:44.557Z,78.27
2019-05-02T09:55:49.560Z,77.05
2019-05-02T09:56:43.061Z,75.70
2019-05-02T09:57:42.784Z,74.51
2019-05-02T09:58:42.040Z,76.53
2019-05-02T09:59:43.155Z,74.79
2019-05-02T10:00:41.933Z,74.83
2019-05-02T10:01:42.138Z,75.22
2019-05-02T10:02:41.916Z,74.16
2019-05-02T10:03:42.335Z,73.96
2019-05-02T10:04:44.037Z,73.71
2019-05-02T10:05:43.099Z,73.61
2019-05-02T10:06:42.939Z,73.28
2019-05-02T10:07:42.009Z,73.96
2019-05-02T10:08:43.522Z,73.38
2019-05-02T10:09:42.421Z,74.16
2019-05-02T10:10:44.896Z,72.84
2019-05-02T10:11:41.883Z,73.36
2019-05-02T10:12:42.702Z,73.36
2019-05-02T10:13:42.441Z,71.14
2019-05-02T10:14:42.186Z,69.10
2019-05-02T10:15:42.211Z,71.10
2019-05-02T10:16:42.616Z,71.78
2019-05-02T10:17:42.872Z,68.59
2019-05-02T10:18:43.128Z,70.42
2019-05-02T10:19:48.804Z,71.68
2019-05-02T10:20:42.060Z,71.14
2019-05-02T10:21:42.248Z,71.72
2019-05-02T10:22:43.735Z,71.42
2019-05-02T10:23:42.734Z,71.84
2019-05-02T10:24:42.545Z,71.69
2019-05-02T10:25:46.620Z,72.36
2019-05-02T10:26:42.011Z,71.94
2019-05-02T10:27:45.963Z,69.88
2019-05-02T10:28:49.280Z,70.56
2019-05-02T10:29:41.997Z,71.30
2019-05-02T10:30:42.637Z,70.62
2019-05-02T10:31:42.312Z,71.64
2019-05-02T10:32:42.751Z,69.17
2019-05-02T10:33:42.914Z,70.94
2019-05-02T10:34:42.279Z,69.40
2019-05-02T10:35:43.334Z,69.40
2019-05-02T10:36:44.890Z,69.01
2019-05-02T10:37:43.071Z,69.72
2019-05-02T10:38:42.715Z,69.17
2019-05-02T10:39:42.369Z,69.37
2019-05-02T10:40:42.538Z,65.79
2019-05-02T10:41:43.777Z,66.78
2019-05-02T10:42:42.171Z,67.52
2019-05-02T10:43:42.435Z,71.10
2019-05-02T10:44:42.661Z,70.10
2019-05-02T10:45:42.639Z,69.14
2019-05-02T10:46:42.230Z,70.04
2019-05-02T10:47:42.401Z,71.98
2019-05-02T10:48:42.336Z,68.21
2019-05-02T10:49:42.695Z,68.24
2019-05-02T10:50:42.320Z,68.59
2019-05-02T10:51:49.042Z,68.40
2019-05-02T10:52:42.556Z,68.63
2019-05-02T10:53:42.502Z,65.14
2019-05-02T10:54:42.347Z,65.72
2019-05-02T10:55:42.643Z,65.69
2019-05-02T10:56:42.441Z,68.40
2019-05-02T10:57:42.393Z,66.56
2019-05-02T10:58:42.678Z,68.33
2019-05-02T10:59:42.454Z,68.21
2019-05-02T11:00:45.280Z,67.43
2019-05-02T11:01:42.483Z,67.69
2019-05-02T11:02:42.498Z,66.56
2019-05-02T11:03:43.774Z,67.43
2019-05-02T11:04:42.507Z,64.66
2019-05-02T11:05:42.506Z,64.07
2019-05-02T11:06:46.084Z,65.05
2019-05-02T11:07:42.551Z,67.21
2019-05-02T11:08:46.013Z,66.72
2019-05-02T11:09:42.576Z,67.72
2019-05-02T11:10:42.595Z,65.92
2019-05-02T11:11:42.657Z,67.18
2019-05-02T11:12:46.964Z,65.66
2019-05-02T11:13:42.673Z,62.46
2019-05-02T11:14:42.662Z,61.46
2019-05-02T11:15:42.675Z,64.50
2019-05-02T11:16:42.720Z,63.56
2019-05-02T11:17:42.704Z,65.05
2019-05-02T11:18:45.223Z,65.08
2019-05-02T11:19:42.740Z,62.13
2019-05-02T11:20:42.760Z,62.40
2019-05-02T11:21:55.807Z,64.47
2019-05-02T11:22:42.880Z,65.43
2019-05-02T11:23:42.835Z,62.82
2019-05-02T11:24:42.822Z,62.62
2019-05-02T11:25:42.838Z,64.20
2019-05-02T11:26:42.987Z,63.04
2019-05-02T11:27:42.869Z,64.24
2019-05-02T11:28:42.902Z,64.72
2019-05-02T11:29:42.903Z,65.47
2019-05-02T11:30:42.919Z,66.08
2019-05-02T11:31:42.961Z,65.30
2019-05-02T11:32:42.952Z,64.07
2019-05-02T11:33:42.962Z,66.53
2019-05-02T11:34:42.983Z,68.15
2019-05-02T11:35:49.082Z,67.27
2019-05-02T11:36:43.039Z,68.82
2019-05-02T11:37:43.030Z,68.18
2019-05-02T11:38:45.222Z,65.98
2019-05-02T11:39:50.021Z,65.17
2019-05-02T11:40:43.077Z,66.98
2019-05-02T11:41:43.115Z,69.17
2019-05-02T11:42:43.109Z,68.30
2019-05-02T11:43:44.967Z,67.98
2019-05-02T11:44:43.137Z,68.04
2019-05-02T11:45:43.152Z,69.98
2019-05-02T11:46:46.878Z,68.43
2019-05-02T11:47:43.179Z,69.74
2019-05-02T11:48:55.603Z,71.00
2019-05-02T11:49:46.834Z,68.91
2019-05-02T11:50:43.228Z,67.91
2019-05-02T11:51:47.132Z,68.40
2019-05-02T11:52:43.252Z,69.17
2019-05-02T11:53:43.269Z,66.91
2019-05-02T11:54:44.678Z,67.91
2019-05-02T11:55:43.847Z,69.20
2019-05-02T11:56:48.851Z,71.38
2019-05-02T11:57:43.325Z,73.60
2019-05-02T11:58:48.019Z,73.89
2019-05-02T11:59:43.351Z,74.12
2019-05-02T12:00:48.419Z,73.80
2019-05-02T12:01:56.217Z,72.06
2019-05-02T12:02:43.385Z,70.90
2019-05-02T12:03:43.446Z,67.21
2019-05-02T12:04:47.240Z,67.91
2019-05-02T12:05:43.451Z,67.21
2019-05-02T12:06:43.436Z,67.30
2019-05-02T12:07:43.448Z,65.37
2019-05-02T12:08:45.000Z,66.40
2019-05-02T12:09:50.783Z,68.85
2019-05-02T12:10:43.511Z,67.49
2019-05-02T12:11:47.331Z,69.33
2019-05-02T12:12:43.519Z,69.01
2019-05-02T12:13:47.367Z,68.91
2019-05-02T12:14:43.580Z,68.75
2019-05-02T12:15:44.294Z,69.98
2019-05-02T12:16:43.568Z,69.98
2019-05-02T12:17:43.586Z,69.33
2019-05-02T12:18:43.600Z,69.14
2019-05-02T12:19:43.650Z,67.46
2019-05-02T12:20:43.662Z,68.78
2019-05-02T12:21:43.761Z,70.14
2019-05-02T12:22:43.664Z,69.74
2019-05-02T12:23:43.689Z,69.68
2019-05-02T12:24:45.311Z,68.91
2019-05-02T12:25:43.738Z,67.08
2019-05-02T12:26:46.405Z,69.10
2019-05-02T12:27:43.733Z,70.20
2019-05-02T12:28:43.747Z,69.72
2019-05-02T12:29:43.790Z,69.68
2019-05-02T12:30:43.801Z,69.04
2019-05-02T12:31:47.268Z,69.10
2019-05-02T12:32:43.806Z,70.16
2019-05-02T12:33:43.815Z,70.32
2019-05-02T12:34:43.859Z,71.73
2019-05-02T12:35:43.902Z,73.21
2019-05-02T12:36:43.860Z,73.25
2019-05-02T12:37:47.026Z,71.94
2019-05-02T12:38:43.883Z,72.71
2019-05-02T12:39:43.922Z,73.06
2019-05-02T12:40:43.941Z,73.21
2019-05-02T12:41:44.080Z,71.73
2019-05-02T12:42:43.951Z,73.37
2019-05-02T12:43:43.944Z,75.26
2019-05-02T12:44:43.986Z,75.13
2019-05-02T12:45:43.997Z,76.82
2019-05-02T12:46:43.977Z,77.69
2019-05-02T12:47:43.992Z,76.11
2019-05-02T12:48:44.004Z,76.63
2019-05-02T12:49:44.044Z,76.31
2019-05-02T12:50:44.053Z,77.50
2019-05-02T12:51:44.033Z,77.50
2019-05-02T12:52:44.049Z,77.40
2019-05-02T12:53:44.049Z,77.38
2019-05-02T12:54:44.094Z,77.33
2019-05-02T12:55:44.110Z,76.10
2019-05-02T12:56:44.086Z,72.86
2019-05-02T12:57:44.098Z,71.94
2019-05-02T12:58:44.103Z,71.39
2019-05-02T12:59:44.116Z,69.84